Portada
METAR-TAF:

METAR-TAF

Aeroports :

Plantation Airpark

Sylvania, Geòrgia, Estats Units d'Amèrica

latitud: 32-38-43N, longitud: 081-35-47W, altitud: 57 m

Observació

L'informe es va fer fa 25 minuts, a les 01:15 UTC
Vent 3 kt del Oest/Nord-Oest
Temperatura 24°C
Humitat 89%
Pressió 1017 hPa
Visibilitat: 11.3 km
Núvols disperses a una alçada de 4400 ft
Cel ennuvolat a una alçada de 8000 ft
Cel cobert a una alçada de 12000 ft
pluja

METAR: KJYL 110115Z AUTO 29003KT 7SM -RA SCT044 BKN080 OVC120 24/22 A3004 RMK AO2 LTG DSNT NE THRU S T02390223

Hora: 21:40 (01:40 UTC)


TAF: manca

Observacions i pronòstics meteorològics de més de 4000 aeroports (METAR i TAF).

Les estacions disponibles són els punts grocs i vermells al mapa.

Posi el ratolí al punt desitjat per veure el nom de l'estació.

Feu clic per veure les observacions i els pronòstics meteorològics.

Per canviar el mapa: feu clic els botons verds amb una creu de color negre per apropar; al botó verd amb un guió per allunyar la imatge; o en les fletxes verdes per a mapes adjacents.


METAR-TAF: